createdAt,value
2018-05-03T00:00:05.618Z,11.72
2018-05-03T00:01:05.629Z,11.72
2018-05-03T00:02:05.707Z,11.81
2018-05-03T00:03:05.671Z,11.69
2018-05-03T00:04:05.683Z,11.72
2018-05-03T00:05:05.708Z,11.87
2018-05-03T00:06:05.711Z,11.72
2018-05-03T00:07:05.748Z,11.47
2018-05-03T00:08:05.845Z,11.33
2018-05-03T00:09:05.777Z,11.18
2018-05-03T00:10:05.783Z,11.32
2018-05-03T00:11:05.872Z,11.12
2018-05-03T00:12:05.884Z,11.18
2018-05-03T00:13:05.875Z,11.04
2018-05-03T00:14:05.855Z,10.93
2018-05-03T00:15:05.883Z,10.93
2018-05-03T00:16:05.893Z,10.92
2018-05-03T00:17:05.908Z,10.76
2018-05-03T00:18:05.952Z,10.61
2018-05-03T00:19:05.942Z,10.49
2018-05-03T00:20:05.966Z,10.59
2018-05-03T00:21:05.980Z,10.68
2018-05-03T00:22:06.084Z,10.89
2018-05-03T00:23:06.022Z,11.04
2018-05-03T00:24:06.040Z,10.96
2018-05-03T00:25:06.093Z,10.84
2018-05-03T00:26:06.145Z,10.90
2018-05-03T00:27:06.088Z,10.94
2018-05-03T00:28:06.103Z,11.04
2018-05-03T00:29:06.130Z,11.07
2018-05-03T00:30:06.177Z,11.04
2018-05-03T00:31:06.244Z,10.86
2018-05-03T00:32:06.208Z,10.87
2018-05-03T00:33:06.237Z,10.81
2018-05-03T00:34:06.217Z,10.82
2018-05-03T00:35:06.234Z,10.96
2018-05-03T00:36:06.300Z,10.92
2018-05-03T00:37:06.295Z,10.68
2018-05-03T00:38:06.285Z,10.82
2018-05-03T00:39:06.321Z,10.94
2018-05-03T00:40:06.354Z,10.93
2018-05-03T00:41:06.343Z,10.63
2018-05-03T00:42:06.362Z,10.69
2018-05-03T00:43:06.397Z,10.92
2018-05-03T00:44:06.386Z,10.67
2018-05-03T00:45:06.418Z,10.40
2018-05-03T00:46:06.419Z,10.15
2018-05-03T00:47:06.507Z,10.07
2018-05-03T00:48:06.447Z,10.02
2018-05-03T00:49:06.492Z,10.09
2018-05-03T00:50:06.474Z,10.10
2018-05-03T00:51:06.539Z,10.31
2018-05-03T00:52:06.521Z,10.46
2018-05-03T00:53:06.535Z,10.56
2018-05-03T00:54:06.561Z,10.64
2018-05-03T00:55:06.572Z,10.68
2018-05-03T00:56:06.588Z,10.67
2018-05-03T00:57:06.637Z,10.75
2018-05-03T00:58:06.615Z,10.74
2018-05-03T00:59:06.662Z,10.69
2018-05-03T01:00:06.653Z,10.68
2018-05-03T01:01:06.674Z,10.63
2018-05-03T01:02:06.687Z,10.68
2018-05-03T01:03:06.705Z,10.79
2018-05-03T01:04:06.723Z,10.59
2018-05-03T01:05:06.742Z,10.71
2018-05-03T01:06:06.769Z,10.68
2018-05-03T01:07:06.780Z,10.74
2018-05-03T01:08:06.824Z,10.69
2018-05-03T01:09:06.815Z,10.74
2018-05-03T01:10:06.840Z,10.82
2018-05-03T01:11:06.847Z,10.92
2018-05-03T01:12:06.874Z,10.82
2018-05-03T01:13:06.894Z,10.89
2018-05-03T01:14:06.939Z,10.87
2018-05-03T01:15:06.975Z,10.90
2018-05-03T01:16:06.938Z,10.84
2018-05-03T01:17:06.981Z,10.78
2018-05-03T01:18:06.972Z,10.78
2018-05-03T01:19:06.986Z,10.76
2018-05-03T01:20:07.008Z,10.76
2018-05-03T01:21:07.033Z,10.82
2018-05-03T01:22:07.043Z,10.84
2018-05-03T01:23:07.078Z,10.76
2018-05-03T01:24:07.089Z,10.79
2018-05-03T01:25:07.125Z,10.82
2018-05-03T01:26:07.115Z,10.68
2018-05-03T01:27:07.132Z,10.49
2018-05-03T01:28:07.152Z,10.41
2018-05-03T01:29:07.161Z,10.35
2018-05-03T01:30:07.201Z,10.16
2018-05-03T01:31:07.196Z,10.22
2018-05-03T01:32:07.238Z,10.37
2018-05-03T01:33:07.282Z,10.34
2018-05-03T01:34:07.287Z,10.13
2018-05-03T01:35:07.268Z,9.86
2018-05-03T01:36:07.287Z,9.92
2018-05-03T01:37:07.308Z,10.16
2018-05-03T01:38:07.314Z,9.92
2018-05-03T01:39:07.350Z,9.94
2018-05-03T01:40:07.350Z,10.16
2018-05-03T01:41:07.370Z,10.13
2018-05-03T01:42:07.379Z,9.79
2018-05-03T01:43:07.398Z,9.92
2018-05-03T01:44:07.420Z,10.12
2018-05-03T01:45:07.455Z,10.22
2018-05-03T01:46:07.472Z,10.26
2018-05-03T01:47:07.476Z,10.10
2018-05-03T01:48:07.492Z,10.01
2018-05-03T01:49:07.519Z,9.91
2018-05-03T01:50:07.527Z,9.87
2018-05-03T01:51:07.544Z,9.76
2018-05-03T01:52:07.564Z,9.87
2018-05-03T01:53:07.599Z,10.09
2018-05-03T01:54:07.685Z,10.07
2018-05-03T01:55:07.616Z,9.99
2018-05-03T01:56:07.634Z,10.10
2018-05-03T01:57:07.649Z,10.05
2018-05-03T01:58:07.681Z,10.19
2018-05-03T01:59:07.683Z,10.20
2018-05-03T02:00:07.767Z,9.94
2018-05-03T02:01:07.799Z,9.92
2018-05-03T02:02:07.734Z,10.02
2018-05-03T02:03:07.767Z,9.98
2018-05-03T02:04:07.775Z,9.99
2018-05-03T02:05:07.807Z,10.12
2018-05-03T02:06:07.833Z,10.28
2018-05-03T02:07:07.824Z,10.15
2018-05-03T02:08:07.849Z,10.22
2018-05-03T02:09:07.854Z,10.19
2018-05-03T02:10:07.885Z,10.02
2018-05-03T02:11:07.900Z,10.23
2018-05-03T02:12:07.912Z,10.23
2018-05-03T02:13:07.932Z,10.22
2018-05-03T02:14:07.992Z,10.26
2018-05-03T02:15:07.960Z,10.33
2018-05-03T02:16:07.996Z,10.44
2018-05-03T02:17:08.008Z,10.40
2018-05-03T02:18:08.022Z,10.25
2018-05-03T02:19:08.078Z,10.42
2018-05-03T02:20:08.037Z,10.35
2018-05-03T02:21:08.061Z,10.30
2018-05-03T02:22:08.108Z,10.42
2018-05-03T02:23:08.101Z,10.40
2018-05-03T02:24:08.111Z,10.35
2018-05-03T02:25:08.137Z,10.26
2018-05-03T02:26:08.142Z,9.99
2018-05-03T02:27:08.160Z,10.05
2018-05-03T02:28:08.250Z,10.17
2018-05-03T02:29:08.255Z,10.25
2018-05-03T02:30:08.229Z,10.30
2018-05-03T02:31:08.236Z,10.26
2018-05-03T02:32:08.329Z,10.26
2018-05-03T02:33:08.316Z,10.30
2018-05-03T02:34:08.318Z,10.30
2018-05-03T02:35:08.329Z,10.33
2018-05-03T02:36:08.324Z,10.26
2018-05-03T02:37:08.339Z,10.26
2018-05-03T02:38:08.366Z,10.25
2018-05-03T02:39:08.454Z,10.26
2018-05-03T02:40:08.384Z,10.30
2018-05-03T02:41:08.409Z,10.25
2018-05-03T02:42:08.442Z,10.30
2018-05-03T02:43:08.436Z,10.33
2018-05-03T02:44:08.455Z,10.17
2018-05-03T02:45:08.476Z,10.31
2018-05-03T02:46:08.504Z,10.30
2018-05-03T02:47:08.516Z,10.20
2018-05-03T02:48:08.534Z,10.10
2018-05-03T02:49:08.590Z,9.77
2018-05-03T02:50:08.593Z,9.62
2018-05-03T02:51:08.641Z,9.80
2018-05-03T02:52:08.600Z,9.47
2018-05-03T02:53:08.625Z,9.34
2018-05-03T02:54:08.636Z,9.47
2018-05-03T02:55:08.663Z,9.13
2018-05-03T02:56:08.683Z,9.16
2018-05-03T02:57:08.752Z,9.08
2018-05-03T02:58:08.722Z,8.89
2018-05-03T02:59:08.766Z,8.97
2018-05-03T03:00:08.739Z,8.84
2018-05-03T03:01:08.754Z,9.19
2018-05-03T03:02:08.798Z,9.14
2018-05-03T03:03:08.806Z,9.14
2018-05-03T03:04:08.796Z,9.19
2018-05-03T03:05:08.817Z,9.16
2018-05-03T03:06:08.835Z,9.16
2018-05-03T03:07:08.852Z,9.16
2018-05-03T03:08:08.872Z,9.14
2018-05-03T03:09:08.907Z,9.22
2018-05-03T03:10:08.920Z,9.26
2018-05-03T03:11:08.948Z,9.14
2018-05-03T03:12:08.937Z,9.19
2018-05-03T03:13:08.959Z,9.21
2018-05-03T03:14:08.977Z,9.06
2018-05-03T03:15:09.010Z,9.14
2018-05-03T03:16:09.006Z,9.18
2018-05-03T03:17:09.096Z,9.14
2018-05-03T03:18:09.074Z,9.19
2018-05-03T03:19:09.057Z,9.14
2018-05-03T03:20:09.072Z,9.23
2018-05-03T03:21:09.089Z,9.16
2018-05-03T03:22:09.204Z,8.85
2018-05-03T03:23:09.119Z,8.76
2018-05-03T03:24:09.137Z,8.95
2018-05-03T03:25:09.157Z,9.02
2018-05-03T03:26:09.190Z,8.73
2018-05-03T03:27:09.251Z,8.69
2018-05-03T03:28:09.222Z,8.73
2018-05-03T03:29:09.223Z,8.78
2018-05-03T03:30:09.251Z,8.84
2018-05-03T03:31:09.277Z,8.85
2018-05-03T03:32:09.290Z,8.82
2018-05-03T03:33:09.291Z,8.85
2018-05-03T03:34:09.334Z,8.85
2018-05-03T03:35:09.331Z,8.85
2018-05-03T03:36:09.341Z,8.87
2018-05-03T03:37:09.353Z,8.73
2018-05-03T03:38:09.372Z,8.81
2018-05-03T03:39:09.412Z,8.88
2018-05-03T03:40:09.449Z,9.08
2018-05-03T03:41:09.441Z,9.08
2018-05-03T03:42:09.439Z,9.16
2018-05-03T03:43:09.457Z,9.13
2018-05-03T03:44:09.473Z,8.97
2018-05-03T03:45:09.534Z,9.06
2018-05-03T03:46:09.565Z,9.04
2018-05-03T03:47:09.535Z,8.99
2018-05-03T03:48:09.578Z,8.84
2018-05-03T03:49:09.561Z,8.48
2018-05-03T03:50:09.574Z,8.53
2018-05-03T03:51:09.682Z,8.58
2018-05-03T03:52:09.615Z,8.26
2018-05-03T03:53:09.741Z,8.18
2018-05-03T03:54:09.638Z,8.33
2018-05-03T03:55:09.673Z,8.46
2018-05-03T03:56:09.673Z,8.36
2018-05-03T03:57:09.691Z,8.33
2018-05-03T03:58:09.763Z,8.36
2018-05-03T03:59:09.748Z,8.38
2018-05-03T04:00:09.752Z,8.37
2018-05-03T04:01:09.763Z,8.36
2018-05-03T04:02:09.766Z,8.44
2018-05-03T04:03:09.808Z,8.53
2018-05-03T04:04:09.812Z,8.51
2018-05-03T04:05:09.822Z,8.60
2018-05-03T04:06:09.842Z,8.63
2018-05-03T04:07:09.856Z,8.66
2018-05-03T04:08:09.925Z,8.74
2018-05-03T04:09:09.886Z,8.73
2018-05-03T04:10:09.908Z,8.85
2018-05-03T04:11:09.937Z,8.89
2018-05-03T04:12:09.986Z,8.85
2018-05-03T04:13:09.972Z,8.73
2018-05-03T04:14:09.983Z,8.70
2018-05-03T04:15:10.004Z,8.88
2018-05-03T04:16:10.011Z,8.55
2018-05-03T04:17:10.056Z,8.41
2018-05-03T04:18:10.041Z,8.64
2018-05-03T04:19:10.060Z,8.67
2018-05-03T04:20:10.075Z,8.67
2018-05-03T04:21:10.091Z,8.66
2018-05-03T04:22:10.145Z,8.53
2018-05-03T04:23:10.135Z,8.73
2018-05-03T04:24:10.143Z,8.81
2018-05-03T04:25:10.182Z,8.70
2018-05-03T04:26:10.175Z,8.81
2018-05-03T04:27:10.264Z,8.92
2018-05-03T04:28:10.207Z,9.03
2018-05-03T04:29:10.248Z,8.79
2018-05-03T04:30:10.247Z,8.95
2018-05-03T04:31:10.288Z,9.03
2018-05-03T04:32:10.372Z,8.84
2018-05-03T04:33:10.299Z,9.03
2018-05-03T04:34:10.315Z,9.13
2018-05-03T04:35:10.333Z,9.11
2018-05-03T04:36:10.353Z,9.14
2018-05-03T04:37:10.372Z,9.37
2018-05-03T04:38:10.394Z,9.51
2018-05-03T04:39:10.406Z,9.72
2018-05-03T04:40:10.421Z,9.76
2018-05-03T04:41:10.438Z,10.01
2018-05-03T04:42:10.499Z,10.13
2018-05-03T04:43:10.488Z,10.37
2018-05-03T04:44:10.503Z,10.49
2018-05-03T04:45:10.508Z,10.67
2018-05-03T04:46:10.524Z,10.68
2018-05-03T04:47:10.548Z,10.67
2018-05-03T04:48:10.578Z,10.94
2018-05-03T04:49:10.591Z,11.10
2018-05-03T04:50:10.641Z,11.00
2018-05-03T04:51:10.602Z,11.11
2018-05-03T04:52:10.626Z,11.25
2018-05-03T04:53:10.662Z,11.37
2018-05-03T04:54:10.732Z,11.80
2018-05-03T04:55:10.740Z,12.10
2018-05-03T04:56:10.722Z,12.49
2018-05-03T04:57:10.744Z,12.86
2018-05-03T04:58:10.738Z,12.79
2018-05-03T04:59:10.883Z,12.54
2018-05-03T05:00:10.768Z,12.97
2018-05-03T05:01:10.787Z,12.78
2018-05-03T05:02:10.845Z,13.20
2018-05-03T05:03:10.826Z,13.62
2018-05-03T05:04:10.840Z,14.14
2018-05-03T05:05:10.898Z,14.35
2018-05-03T05:06:10.884Z,14.18
2018-05-03T05:07:10.979Z,14.43
2018-05-03T05:08:10.943Z,14.63
2018-05-03T05:09:10.991Z,14.77
2018-05-03T05:10:10.963Z,14.88
2018-05-03T05:11:10.994Z,14.85
2018-05-03T05:12:11.017Z,15.31
2018-05-03T05:13:11.096Z,14.70
2018-05-03T05:14:11.063Z,15.21
2018-05-03T05:15:11.084Z,15.40
2018-05-03T05:16:11.110Z,14.48
2018-05-03T05:17:11.105Z,14.17
2018-05-03T05:18:11.117Z,13.79
2018-05-03T05:19:11.167Z,13.54
2018-05-03T05:20:11.179Z,13.41
2018-05-03T05:21:11.186Z,13.78
2018-05-03T05:22:11.203Z,13.86
2018-05-03T05:23:11.380Z,13.78
2018-05-03T05:24:11.338Z,13.93
2018-05-03T05:25:11.282Z,14.54
2018-05-03T05:26:11.301Z,14.89
2018-05-03T05:27:11.320Z,15.21
2018-05-03T05:28:11.323Z,15.43
2018-05-03T05:29:11.355Z,15.15
2018-05-03T05:30:11.365Z,15.22
2018-05-03T05:31:11.388Z,15.25
2018-05-03T05:32:11.426Z,14.79
2018-05-03T05:33:11.433Z,14.43
2018-05-03T05:34:11.461Z,14.26
2018-05-03T05:35:11.496Z,14.53
2018-05-03T05:36:11.590Z,14.59
2018-05-03T05:37:11.525Z,14.79
2018-05-03T05:38:11.527Z,15.24
2018-05-03T05:39:11.548Z,14.85
2018-05-03T05:40:11.569Z,14.43
2018-05-03T05:41:11.595Z,14.04
2018-05-03T05:42:11.612Z,13.65
2018-05-03T05:43:11.860Z,13.78
2018-05-03T05:44:11.719Z,14.17
2018-05-03T05:45:11.685Z,14.41
2018-05-03T05:46:11.711Z,14.33
2018-05-03T05:47:11.720Z,14.81
2018-05-03T05:48:11.780Z,14.62
2018-05-03T05:49:11.789Z,14.29
2018-05-03T05:50:11.778Z,14.55
2018-05-03T05:51:11.899Z,15.04
2018-05-03T05:52:11.817Z,15.25
2018-05-03T05:53:11.912Z,15.14
2018-05-03T05:54:11.862Z,14.69
2018-05-03T05:55:11.898Z,14.94
2018-05-03T05:56:11.920Z,15.03
2018-05-03T05:57:11.923Z,14.84
2018-05-03T05:58:12.016Z,14.84
2018-05-03T05:59:11.956Z,14.82
2018-05-03T06:00:11.976Z,14.94
2018-05-03T06:01:12.044Z,14.85
2018-05-03T06:02:12.071Z,14.54
2018-05-03T06:03:12.048Z,14.45
2018-05-03T06:04:12.143Z,14.40
2018-05-03T06:05:12.087Z,14.59
2018-05-03T06:06:12.132Z,14.65
2018-05-03T06:07:12.182Z,14.79
2018-05-03T06:08:12.295Z,14.63
2018-05-03T06:09:12.156Z,14.59
2018-05-03T06:10:12.217Z,14.62
2018-05-03T06:11:12.197Z,14.55
2018-05-03T06:12:12.312Z,14.70
2018-05-03T06:13:12.242Z,14.77
2018-05-03T06:14:12.254Z,14.94
2018-05-03T06:15:12.270Z,14.73
2018-05-03T06:16:12.294Z,14.65
2018-05-03T06:17:12.403Z,14.81
2018-05-03T06:18:12.328Z,15.10
2018-05-03T06:19:12.354Z,15.19
2018-05-03T06:20:12.371Z,14.99
2018-05-03T06:21:12.555Z,14.97
2018-05-03T06:22:12.404Z,15.31
2018-05-03T06:23:12.437Z,15.82
2018-05-03T06:24:12.443Z,16.15
2018-05-03T06:25:12.515Z,16.26
2018-05-03T06:26:12.484Z,16.35
2018-05-03T06:27:12.534Z,16.35
2018-05-03T06:28:12.534Z,16.28
2018-05-03T06:29:12.608Z,16.39
2018-05-03T06:30:12.569Z,15.91
2018-05-03T06:31:12.589Z,15.77
2018-05-03T06:32:12.602Z,16.16
2018-05-03T06:33:12.644Z,16.21
2018-05-03T06:34:12.639Z,15.86
2018-05-03T06:35:12.662Z,16.16
2018-05-03T06:36:12.684Z,15.88
2018-05-03T06:37:12.730Z,15.82
2018-05-03T06:38:12.739Z,15.91
2018-05-03T06:39:12.740Z,15.80
2018-05-03T06:40:12.763Z,15.91
2018-05-03T06:41:12.805Z,16.00
2018-05-03T06:42:12.799Z,15.65
2018-05-03T06:43:12.832Z,15.61
2018-05-03T06:44:12.836Z,15.84
2018-05-03T06:45:12.947Z,15.90
2018-05-03T06:46:12.886Z,16.13
2018-05-03T06:47:12.913Z,16.13
2018-05-03T06:48:12.944Z,16.23
2018-05-03T06:49:12.986Z,16.28
2018-05-03T06:50:12.970Z,16.38
2018-05-03T06:51:13.012Z,16.31
2018-05-03T06:52:13.004Z,16.41
2018-05-03T06:53:13.046Z,16.79
2018-05-03T06:54:13.056Z,16.83
2018-05-03T06:55:13.068Z,17.34
2018-05-03T06:56:13.091Z,18.29
2018-05-03T06:57:13.126Z,19.04
2018-05-03T06:58:13.124Z,19.24
2018-05-03T06:59:13.143Z,19.88
2018-05-03T07:00:13.193Z,19.99
2018-05-03T07:01:13.199Z,20.25
2018-05-03T07:02:13.230Z,20.97
2018-05-03T07:03:13.305Z,21.22
2018-05-03T07:04:13.295Z,20.70
2018-05-03T07:05:13.275Z,21.27
2018-05-03T07:06:13.331Z,22.04
2018-05-03T07:07:13.367Z,22.51
2018-05-03T07:08:13.399Z,22.15
2018-05-03T07:09:13.369Z,22.02
2018-05-03T07:10:13.390Z,21.02
2018-05-03T07:11:13.412Z,20.97
2018-05-03T07:12:13.453Z,20.81
2018-05-03T07:13:13.491Z,21.30
2018-05-03T07:14:13.558Z,21.58
2018-05-03T07:15:13.551Z,20.59
2018-05-03T07:16:13.632Z,20.72
2018-05-03T07:17:13.581Z,21.37
2018-05-03T07:18:13.592Z,21.54
2018-05-03T07:19:13.599Z,21.93
2018-05-03T07:20:13.691Z,22.07
2018-05-03T07:21:13.669Z,22.11
2018-05-03T07:22:13.722Z,22.13
2018-05-03T07:23:13.703Z,21.35
2018-05-03T07:24:13.735Z,21.06
2018-05-03T07:25:13.757Z,20.93
2018-05-03T07:26:13.772Z,21.14
2018-05-03T07:27:13.798Z,21.12
2018-05-03T07:28:13.825Z,20.28
2018-05-03T07:29:13.865Z,20.07
2018-05-03T07:30:13.882Z,19.86
2018-05-03T07:31:14.072Z,19.71
2018-05-03T07:32:13.915Z,19.49
2018-05-03T07:33:13.968Z,19.39
2018-05-03T07:34:13.980Z,19.39
2018-05-03T07:35:14.003Z,19.67
2018-05-03T07:36:14.031Z,19.51
2018-05-03T07:37:14.042Z,19.94
2018-05-03T07:38:14.054Z,20.63
2018-05-03T07:39:14.101Z,21.29
2018-05-03T07:40:14.182Z,21.17
2018-05-03T07:41:14.138Z,21.35
2018-05-03T07:42:14.295Z,21.11
2018-05-03T07:43:14.164Z,21.17
2018-05-03T07:44:14.202Z,21.85
2018-05-03T07:45:14.304Z,22.35
2018-05-03T07:46:14.378Z,23.09
2018-05-03T07:47:14.269Z,23.09
2018-05-03T07:48:14.356Z,23.39
2018-05-03T07:49:14.376Z,23.63
2018-05-03T07:50:14.380Z,23.54
2018-05-03T07:51:14.364Z,24.42
2018-05-03T07:52:14.404Z,24.03
2018-05-03T07:53:14.415Z,23.66
2018-05-03T07:54:14.434Z,23.69
2018-05-03T07:55:14.469Z,23.54
2018-05-03T07:56:14.479Z,23.15
2018-05-03T07:57:14.509Z,22.13
2018-05-03T07:58:14.546Z,22.28
2018-05-03T07:59:14.601Z,22.18
2018-05-03T08:00:14.641Z,23.48
2018-05-03T08:01:14.610Z,24.61
2018-05-03T08:02:14.627Z,24.40
2018-05-03T08:03:14.661Z,24.61
2018-05-03T08:04:14.682Z,24.98
2018-05-03T08:05:14.705Z,25.46
2018-05-03T08:06:14.730Z,25.04
2018-05-03T08:07:14.761Z,24.93
2018-05-03T08:08:14.794Z,24.65
2018-05-03T08:09:14.814Z,25.04
2018-05-03T08:10:14.850Z,24.58
2018-05-03T08:11:14.862Z,25.08
2018-05-03T08:12:14.911Z,25.78
2018-05-03T08:13:14.917Z,26.60
2018-05-03T08:14:14.947Z,26.06
2018-05-03T08:15:15.010Z,25.26
2018-05-03T08:16:15.025Z,24.11
2018-05-03T08:17:15.024Z,24.17
2018-05-03T08:18:15.148Z,24.11
2018-05-03T08:19:15.082Z,24.57
2018-05-03T08:20:15.191Z,23.84
2018-05-03T08:21:15.120Z,23.31
2018-05-03T08:22:15.169Z,23.61
2018-05-03T08:23:15.234Z,23.37
2018-05-03T08:24:15.196Z,22.66
2018-05-03T08:25:15.233Z,23.15
2018-05-03T08:26:15.275Z,23.74
2018-05-03T08:27:15.271Z,24.26
2018-05-03T08:28:15.295Z,24.66
2018-05-03T08:29:15.321Z,23.09
2018-05-03T08:30:15.490Z,22.90
2018-05-03T08:31:15.369Z,22.60
2018-05-03T08:32:15.393Z,22.88
2018-05-03T08:33:15.430Z,22.72
2018-05-03T08:34:15.451Z,22.23
2018-05-03T08:35:15.469Z,21.22
2018-05-03T08:36:15.492Z,20.93
2018-05-03T08:37:15.557Z,20.03
2018-05-03T08:38:15.537Z,19.82
2018-05-03T08:39:15.593Z,19.74
2018-05-03T08:40:15.632Z,19.49
2018-05-03T08:41:15.604Z,19.40
2018-05-03T08:42:15.635Z,19.52
2018-05-03T08:43:15.653Z,19.12
2018-05-03T08:44:15.672Z,18.98
2018-05-03T08:45:15.702Z,19.15
2018-05-03T08:46:15.720Z,19.47
2018-05-03T08:47:15.741Z,19.82
2018-05-03T08:48:15.763Z,19.45
2018-05-03T08:49:15.789Z,19.26
2018-05-03T08:50:15.816Z,18.95
2018-05-03T08:51:15.864Z,19.30
2018-05-03T08:52:15.864Z,19.64
2018-05-03T08:53:15.884Z,19.81
2018-05-03T08:54:15.912Z,19.81
2018-05-03T08:55:15.930Z,19.47
2018-05-03T08:56:15.953Z,18.93
2018-05-03T08:57:16.041Z,18.66
2018-05-03T08:58:16.002Z,19.04
2018-05-03T08:59:16.008Z,19.52
2018-05-03T09:00:16.024Z,20.02
2018-05-03T09:01:16.078Z,20.09
2018-05-03T09:02:16.163Z,19.76
2018-05-03T09:03:16.096Z,19.22
2018-05-03T09:04:16.121Z,19.18
2018-05-03T09:05:16.150Z,19.82
2018-05-03T09:06:16.160Z,19.88
2018-05-03T09:07:16.277Z,19.91
2018-05-03T09:08:16.228Z,19.74
2018-05-03T09:09:16.223Z,20.11
2018-05-03T09:10:16.244Z,19.64
2018-05-03T09:11:16.269Z,19.29
2018-05-03T09:12:16.351Z,19.07
2018-05-03T09:13:16.384Z,18.66
2018-05-03T09:14:16.347Z,19.15
2018-05-03T09:15:16.374Z,19.36
2018-05-03T09:16:16.392Z,19.59
2018-05-03T09:17:16.478Z,19.48
2018-05-03T09:18:16.418Z,19.27
2018-05-03T09:19:16.479Z,19.16
2018-05-03T09:20:16.461Z,18.88
2018-05-03T09:21:16.519Z,19.18
2018-05-03T09:22:16.506Z,19.16
2018-05-03T09:23:16.565Z,19.36
2018-05-03T09:24:16.584Z,19.18
2018-05-03T09:25:16.595Z,19.04
2018-05-03T09:26:16.606Z,19.29
2018-05-03T09:27:16.740Z,19.39
2018-05-03T09:28:16.640Z,19.51
2018-05-03T09:29:16.690Z,19.51
2018-05-03T09:30:16.666Z,19.04
2018-05-03T09:31:16.779Z,19.47
2018-05-03T09:32:16.711Z,19.82
2018-05-03T09:33:16.838Z,20.18
2018-05-03T09:34:16.789Z,20.59
2018-05-03T09:35:16.784Z,19.79
2018-05-03T09:36:16.813Z,19.82
2018-05-03T09:37:16.820Z,19.88
2018-05-03T09:38:16.884Z,19.77
2018-05-03T09:39:16.892Z,19.99
2018-05-03T09:40:16.889Z,19.88
2018-05-03T09:41:16.922Z,20.26
2018-05-03T09:42:16.929Z,20.25
2018-05-03T09:43:16.955Z,20.40
2018-05-03T09:44:16.974Z,20.02
2018-05-03T09:45:17.050Z,20.09
2018-05-03T09:46:17.050Z,20.25
2018-05-03T09:47:17.088Z,20.03
2018-05-03T09:48:17.075Z,20.18
2018-05-03T09:49:17.147Z,20.02
2018-05-03T09:50:17.114Z,20.03
2018-05-03T09:51:17.147Z,20.36
2018-05-03T09:52:17.161Z,21.07
2018-05-03T09:53:17.164Z,21.48
2018-05-03T09:54:17.228Z,21.35
2018-05-03T09:55:17.215Z,20.93
2018-05-03T09:56:17.232Z,20.97
2018-05-03T09:57:17.282Z,20.80
2018-05-03T09:58:17.268Z,20.66
2018-05-03T09:59:17.299Z,20.56
2018-05-03T10:00:17.315Z,20.41
2018-05-03T10:01:17.420Z,20.04
2018-05-03T10:02:17.363Z,20.56
2018-05-03T10:03:17.429Z,20.85
2018-05-03T10:04:17.406Z,21.14
2018-05-03T10:05:17.427Z,21.60
2018-05-03T10:06:17.444Z,21.06
2018-05-03T10:07:17.494Z,19.86
2018-05-03T10:08:17.490Z,20.32
2018-05-03T10:09:17.593Z,20.36
2018-05-03T10:10:17.612Z,19.86
2018-05-03T10:11:17.561Z,19.59
2018-05-03T10:12:17.631Z,19.86
2018-05-03T10:13:17.654Z,19.73
2018-05-03T10:14:17.625Z,19.88
2018-05-03T10:15:17.641Z,20.11
2018-05-03T10:16:17.676Z,20.80
2018-05-03T10:17:17.715Z,20.14
2018-05-03T10:18:17.713Z,20.14
2018-05-03T10:19:17.746Z,20.16
2018-05-03T10:20:17.752Z,20.50
2018-05-03T10:21:17.774Z,20.44
2018-05-03T10:22:17.854Z,20.47
2018-05-03T10:23:17.823Z,20.72
2018-05-03T10:24:17.908Z,20.93
2018-05-03T10:25:17.996Z,20.96
2018-05-03T10:26:17.881Z,21.09
2018-05-03T10:27:17.907Z,21.57
2018-05-03T10:28:17.964Z,21.52
2018-05-03T10:29:17.947Z,21.22
2018-05-03T10:30:18.081Z,20.52
2018-05-03T10:31:18.017Z,20.99
2018-05-03T10:32:18.012Z,20.62
2018-05-03T10:33:18.040Z,20.47
2018-05-03T10:34:18.052Z,20.55
2018-05-03T10:35:18.083Z,20.72
2018-05-03T10:36:18.162Z,20.80
2018-05-03T10:37:18.137Z,21.06
2018-05-03T10:38:18.166Z,21.12
2018-05-03T10:39:18.174Z,21.77
2018-05-03T10:40:18.199Z,21.92
2018-05-03T10:41:18.212Z,21.79
2018-05-03T10:42:18.317Z,21.22
2018-05-03T10:43:18.279Z,21.40
2018-05-03T10:44:18.299Z,21.80
2018-05-03T10:45:18.303Z,21.48
2018-05-03T10:46:18.343Z,21.45
2018-05-03T10:47:18.340Z,21.40
2018-05-03T10:48:18.376Z,21.52
2018-05-03T10:49:18.460Z,21.40
2018-05-03T10:50:18.451Z,21.43
2018-05-03T10:51:18.441Z,21.46
2018-05-03T10:52:18.455Z,21.79
2018-05-03T10:53:18.485Z,21.83
2018-05-03T10:54:18.497Z,21.17
2018-05-03T10:55:18.526Z,21.54
2018-05-03T10:56:18.548Z,21.92
2018-05-03T10:57:18.564Z,21.89
2018-05-03T10:58:18.594Z,21.69
2018-05-03T10:59:18.617Z,21.79
2018-05-03T11:00:18.638Z,22.17
2018-05-03T11:01:18.703Z,21.48
2018-05-03T11:02:18.677Z,21.46
2018-05-03T11:03:18.733Z,21.40
2018-05-03T11:04:18.829Z,20.72
2018-05-03T11:05:18.837Z,20.92
2018-05-03T11:06:18.790Z,20.97
2018-05-03T11:07:18.787Z,21.21
2018-05-03T11:08:18.822Z,21.12
2018-05-03T11:09:18.835Z,21.22
2018-05-03T11:10:18.880Z,21.11
2018-05-03T11:11:18.882Z,21.36
2018-05-03T11:12:18.905Z,21.55
2018-05-03T11:13:18.970Z,21.45
2018-05-03T11:14:18.979Z,21.42
2018-05-03T11:15:19.006Z,21.17
2018-05-03T11:16:18.994Z,21.06
2018-05-03T11:17:19.016Z,21.24
2018-05-03T11:18:19.037Z,21.27
2018-05-03T11:19:19.132Z,21.51
2018-05-03T11:20:19.078Z,21.03
2018-05-03T11:21:19.102Z,20.51
2018-05-03T11:22:19.133Z,21.15
2018-05-03T11:23:19.148Z,21.05
2018-05-03T11:24:19.168Z,21.12
2018-05-03T11:25:19.193Z,20.96
2018-05-03T11:26:19.219Z,20.85
2018-05-03T11:27:19.239Z,20.72
2018-05-03T11:28:19.271Z,20.65
2018-05-03T11:29:19.288Z,20.11
2018-05-03T11:30:19.312Z,20.22
2018-05-03T11:31:19.331Z,19.70
2018-05-03T11:32:19.353Z,19.70
2018-05-03T11:33:19.397Z,19.70
2018-05-03T11:34:19.391Z,19.62
2018-05-03T11:35:19.457Z,19.96
2018-05-03T11:36:19.438Z,20.10
2018-05-03T11:37:19.455Z,20.16
2018-05-03T11:38:19.480Z,20.50
2018-05-03T11:39:19.504Z,20.82
2018-05-03T11:40:19.526Z,20.96
2018-05-03T11:41:19.554Z,20.59
2018-05-03T11:42:19.574Z,20.39
2018-05-03T11:43:19.624Z,20.62
2018-05-03T11:44:19.607Z,20.81
2018-05-03T11:45:19.698Z,20.90
2018-05-03T11:46:19.657Z,20.48
2018-05-03T11:47:19.675Z,19.92
2018-05-03T11:48:19.689Z,20.02
2018-05-03T11:49:19.727Z,20.32
2018-05-03T11:50:19.775Z,20.43
2018-05-03T11:51:19.765Z,20.34
2018-05-03T11:52:19.781Z,20.65
2018-05-03T11:53:19.799Z,20.97
2018-05-03T11:54:19.827Z,20.97
2018-05-03T11:55:19.869Z,21.36
2018-05-03T11:56:19.930Z,21.39
2018-05-03T11:57:19.930Z,21.17
2018-05-03T11:58:19.993Z,21.06
2018-05-03T11:59:19.954Z,21.02
2018-05-03T12:00:19.971Z,20.96
2018-05-03T12:01:20.028Z,20.70
2018-05-03T12:02:20.078Z,21.07
2018-05-03T12:03:20.077Z,21.15
2018-05-03T12:04:20.122Z,21.42
2018-05-03T12:05:20.067Z,21.12
2018-05-03T12:06:20.094Z,20.88
2018-05-03T12:07:20.156Z,20.90
2018-05-03T12:08:20.267Z,20.67
2018-05-03T12:09:20.157Z,20.72
2018-05-03T12:10:20.230Z,20.63
2018-05-03T12:11:20.234Z,20.63
2018-05-03T12:12:20.239Z,20.56
2018-05-03T12:13:20.255Z,20.70
2018-05-03T12:14:20.308Z,20.82
2018-05-03T12:15:20.285Z,20.70
2018-05-03T12:16:20.312Z,20.78
2018-05-03T12:17:20.354Z,20.51
2018-05-03T12:18:20.404Z,20.70
2018-05-03T12:19:20.376Z,20.14
2018-05-03T12:20:20.409Z,20.41
2018-05-03T12:21:20.465Z,20.59
2018-05-03T12:22:20.433Z,20.59
2018-05-03T12:23:20.512Z,20.69
2018-05-03T12:24:20.516Z,20.85
2018-05-03T12:25:20.519Z,20.66
2018-05-03T12:26:20.610Z,20.50
2018-05-03T12:27:20.563Z,20.29
2018-05-03T12:28:20.581Z,20.69
2018-05-03T12:29:20.604Z,20.97
2018-05-03T12:30:20.637Z,20.69
2018-05-03T12:31:20.645Z,20.60
2018-05-03T12:32:20.667Z,20.70
2018-05-03T12:33:20.686Z,20.55
2018-05-03T12:34:20.711Z,20.44
2018-05-03T12:35:20.748Z,20.32
2018-05-03T12:36:20.753Z,20.72
2018-05-03T12:37:20.772Z,21.15
2018-05-03T12:38:20.838Z,21.35
2018-05-03T12:39:20.875Z,21.37
2018-05-03T12:40:20.838Z,21.42
2018-05-03T12:41:20.861Z,21.61
2018-05-03T12:42:20.913Z,21.33
2018-05-03T12:43:20.925Z,20.99
2018-05-03T12:44:20.926Z,20.90
2018-05-03T12:45:20.980Z,21.00
2018-05-03T12:46:20.961Z,21.07
2018-05-03T12:47:20.990Z,21.22
2018-05-03T12:48:21.028Z,21.25
2018-05-03T12:49:21.087Z,21.25
2018-05-03T12:50:21.067Z,21.30
2018-05-03T12:51:21.088Z,21.27
2018-05-03T12:52:21.092Z,20.92
2018-05-03T12:53:21.175Z,20.85
2018-05-03T12:54:21.179Z,20.93
2018-05-03T12:55:21.185Z,20.43
2018-05-03T12:56:21.245Z,20.40